createdAt,value
2022-12-18T00:00:00.391Z,39.46
2022-12-18T00:00:35.252Z,39.21
2022-12-18T00:01:16.245Z,39.48
2022-12-18T00:01:49.487Z,39.62
2022-12-18T00:02:24.369Z,39.21
2022-12-18T00:02:57.215Z,39.26
2022-12-18T00:03:29.663Z,39.37
2022-12-18T00:04:06.658Z,39.53
2022-12-18T00:04:39.021Z,39.26
2022-12-18T00:05:11.237Z,39.70
2022-12-18T00:05:54.969Z,39.24
2022-12-18T00:06:28.652Z,39.70
2022-12-18T00:07:00.896Z,39.45
2022-12-18T00:07:35.739Z,39.41
2022-12-18T00:08:09.315Z,39.38
2022-12-18T00:08:41.916Z,39.20
2022-12-18T00:09:16.897Z,39.54
2022-12-18T00:09:49.120Z,39.21
2022-12-18T00:10:23.964Z,39.75
2022-12-18T00:10:59.557Z,39.25
2022-12-18T00:11:33.227Z,39.75
2022-12-18T00:12:47.988Z,39.48
2022-12-18T00:13:20.206Z,39.24
2022-12-18T00:13:57.020Z,39.26
2022-12-18T00:14:29.255Z,39.63
2022-12-18T00:15:01.467Z,39.33
2022-12-18T00:15:38.228Z,39.43
2022-12-18T00:16:14.179Z,39.21
2022-12-18T00:16:47.392Z,39.50
2022-12-18T00:17:22.412Z,39.42
2022-12-18T00:17:54.626Z,39.40
2022-12-18T00:18:26.832Z,39.58
2022-12-18T00:19:01.679Z,39.15
2022-12-18T00:19:33.893Z,39.19
2022-12-18T00:20:10.095Z,39.66
2022-12-18T00:20:42.296Z,39.37
2022-12-18T00:21:17.367Z,39.24
2022-12-18T00:21:52.167Z,39.46
2022-12-18T00:22:24.653Z,39.38
2022-12-18T00:22:56.926Z,39.43
2022-12-18T00:23:31.809Z,39.33
2022-12-18T00:24:04.432Z,39.21
2022-12-18T00:24:39.268Z,39.23
2022-12-18T00:25:11.470Z,39.77
2022-12-18T00:25:43.671Z,39.53
2022-12-18T00:26:17.761Z,39.15
2022-12-18T00:26:52.572Z,39.47
2022-12-18T00:27:25.020Z,39.33
2022-12-18T00:27:57.250Z,39.27
2022-12-18T00:28:29.514Z,39.51
2022-12-18T00:29:06.518Z,39.48
2022-12-18T00:29:38.783Z,39.43
2022-12-18T00:30:14.185Z,39.55
2022-12-18T00:30:52.436Z,39.12
2022-12-18T00:31:26.092Z,39.28
2022-12-18T00:31:59.239Z,39.23
2022-12-18T00:32:34.265Z,39.43
2022-12-18T00:33:08.061Z,39.12
2022-12-18T00:33:40.756Z,39.12
2022-12-18T00:34:18.129Z,39.19
2022-12-18T00:34:50.372Z,39.24
2022-12-18T00:35:22.927Z,39.37
2022-12-18T00:35:57.736Z,39.43
2022-12-18T00:36:34.363Z,39.48
2022-12-18T00:37:06.643Z,39.29
2022-12-18T00:37:41.449Z,39.19
2022-12-18T00:38:14.401Z,39.54
2022-12-18T00:38:47.428Z,39.14
2022-12-18T00:39:22.241Z,39.55
2022-12-18T00:39:54.459Z,39.33
2022-12-18T00:40:26.719Z,39.50
2022-12-18T00:40:59.748Z,39.38
2022-12-18T00:41:46.994Z,39.31
2022-12-18T00:42:34.251Z,39.34
2022-12-18T00:43:11.908Z,39.58
2022-12-18T00:43:44.140Z,39.24
2022-12-18T00:44:18.200Z,39.46
2022-12-18T00:44:53.590Z,39.50
2022-12-18T00:45:26.542Z,39.55
2022-12-18T00:45:58.905Z,39.41
2022-12-18T00:46:32.059Z,39.09
2022-12-18T00:47:06.944Z,39.26
2022-12-18T00:47:39.368Z,39.06
2022-12-18T00:48:11.581Z,39.26
2022-12-18T00:48:44.152Z,39.32
2022-12-18T00:49:21.821Z,39.31
2022-12-18T00:49:54.032Z,39.56
2022-12-18T00:50:27.059Z,39.16
2022-12-18T00:51:02.064Z,39.12
2022-12-18T00:51:36.897Z,39.49
2022-12-18T00:52:09.133Z,39.20
2022-12-18T00:52:43.998Z,39.37
2022-12-18T00:53:16.226Z,39.36
2022-12-18T00:53:48.578Z,39.09
2022-12-18T00:54:23.396Z,39.64
2022-12-18T00:54:55.917Z,39.30
2022-12-18T00:55:28.264Z,39.60
2022-12-18T00:56:00.481Z,39.24
2022-12-18T00:56:35.361Z,39.36
2022-12-18T00:57:07.665Z,39.63
2022-12-18T00:57:39.949Z,39.25
2022-12-18T00:58:16.267Z,39.21
2022-12-18T00:58:48.609Z,39.55
2022-12-18T00:59:21.033Z,39.28
2022-12-18T00:59:53.320Z,39.46
2022-12-18T01:00:28.147Z,39.70
2022-12-18T01:01:00.646Z,39.16
2022-12-18T01:01:33.908Z,39.43
2022-12-18T01:02:09.008Z,39.11
2022-12-18T01:02:43.833Z,39.63
2022-12-18T01:03:16.301Z,39.29
2022-12-18T01:03:49.978Z,39.16
2022-12-18T01:04:24.812Z,39.53
2022-12-18T01:04:57.032Z,39.41
2022-12-18T01:05:29.455Z,39.48
2022-12-18T01:06:09.793Z,39.48
2022-12-18T01:06:44.930Z,39.41
2022-12-18T01:07:17.194Z,39.50
2022-12-18T01:07:52.294Z,39.60
2022-12-18T01:08:25.721Z,39.14
2022-12-18T01:08:58.436Z,39.64
2022-12-18T01:09:33.278Z,39.63
2022-12-18T01:10:06.839Z,39.48
2022-12-18T01:10:42.205Z,39.41
2022-12-18T01:11:16.394Z,39.60
2022-12-18T01:11:51.217Z,39.37
2022-12-18T01:12:23.491Z,39.56
2022-12-18T01:12:56.995Z,39.09
2022-12-18T01:13:29.232Z,39.07
2022-12-18T01:14:04.076Z,39.49
2022-12-18T01:14:36.322Z,39.27
2022-12-18T01:15:10.272Z,39.40
2022-12-18T01:15:52.093Z,39.43
2022-12-18T01:16:24.375Z,39.56
2022-12-18T01:16:59.256Z,39.09
2022-12-18T01:17:31.508Z,39.60
2022-12-18T01:18:03.771Z,39.14
2022-12-18T01:18:38.592Z,39.43
2022-12-18T01:19:13.910Z,39.29
2022-12-18T01:19:46.143Z,39.21
2022-12-18T01:20:18.477Z,39.55
2022-12-18T01:20:51.484Z,39.66
2022-12-18T01:21:27.252Z,39.22
2022-12-18T01:22:02.080Z,39.20
2022-12-18T01:22:34.348Z,39.31
2022-12-18T01:23:06.639Z,39.22
2022-12-18T01:23:42.680Z,39.23
2022-12-18T01:24:17.755Z,39.46
2022-12-18T01:24:49.967Z,39.36
2022-12-18T01:25:24.803Z,39.60
2022-12-18T01:25:57.007Z,39.27
2022-12-18T01:26:30.688Z,39.32
2022-12-18T01:27:05.600Z,39.67
2022-12-18T01:27:37.837Z,39.50
2022-12-18T01:28:10.068Z,39.58
2022-12-18T01:28:45.882Z,39.58
2022-12-18T01:29:18.168Z,39.38
2022-12-18T01:29:51.010Z,39.58
2022-12-18T01:30:28.006Z,39.62
2022-12-18T01:31:11.570Z,39.58
2022-12-18T01:31:43.931Z,39.67
2022-12-18T01:32:18.894Z,39.40
2022-12-18T01:32:51.293Z,39.16
2022-12-18T01:33:23.492Z,39.14
2022-12-18T01:33:59.223Z,39.50
2022-12-18T01:34:31.464Z,39.19
2022-12-18T01:35:04.317Z,39.38
2022-12-18T01:35:44.437Z,39.67
2022-12-18T01:36:18.541Z,39.13
2022-12-18T01:36:53.176Z,39.57
2022-12-18T01:37:30.837Z,39.26
2022-12-18T01:38:03.068Z,39.72
2022-12-18T01:38:35.369Z,39.46
2022-12-18T01:39:13.575Z,39.64
2022-12-18T01:39:47.640Z,39.43
2022-12-18T01:40:19.876Z,39.43
2022-12-18T01:41:01.019Z,39.40
2022-12-18T01:41:49.401Z,39.38
2022-12-18T01:42:22.393Z,39.46
2022-12-18T01:42:57.446Z,39.58
2022-12-18T01:43:49.136Z,39.20
2022-12-18T01:44:52.687Z,39.10
2022-12-18T01:45:30.069Z,39.54
2022-12-18T01:46:02.374Z,39.32
2022-12-18T01:46:36.515Z,39.44
2022-12-18T01:47:19.371Z,39.66
2022-12-18T01:47:55.850Z,39.21
2022-12-18T01:48:28.080Z,39.43
2022-12-18T01:49:01.866Z,39.45
2022-12-18T01:49:36.712Z,39.31
2022-12-18T01:50:12.352Z,39.42
2022-12-18T01:50:44.649Z,39.40
2022-12-18T01:51:19.588Z,39.52
2022-12-18T01:51:51.826Z,39.33
2022-12-18T01:52:30.289Z,39.22
2022-12-18T01:53:09.831Z,39.21
2022-12-18T01:53:43.383Z,39.36
2022-12-18T01:54:16.304Z,39.38
2022-12-18T01:54:48.973Z,39.58
2022-12-18T01:55:27.282Z,39.47
2022-12-18T01:55:59.960Z,39.12
2022-12-18T01:56:32.865Z,39.48
2022-12-18T01:57:05.197Z,39.46
2022-12-18T01:57:41.152Z,39.35
2022-12-18T01:58:13.528Z,39.53
2022-12-18T01:58:51.660Z,39.31
2022-12-18T01:59:26.616Z,39.61
2022-12-18T02:00:02.984Z,39.53
2022-12-18T02:00:47.926Z,39.43
2022-12-18T02:01:22.256Z,39.31
2022-12-18T02:01:54.674Z,39.23
2022-12-18T02:02:28.468Z,39.31
2022-12-18T02:03:03.459Z,39.04
2022-12-18T02:03:36.852Z,39.41
2022-12-18T02:04:21.774Z,39.09
2022-12-18T02:04:57.031Z,39.32
2022-12-18T02:05:37.360Z,39.16
2022-12-18T02:06:14.896Z,39.39
2022-12-18T02:06:52.101Z,39.17
2022-12-18T02:07:32.355Z,39.12
2022-12-18T02:08:10.050Z,39.07
2022-12-18T02:08:50.819Z,39.54
2022-12-18T02:09:26.851Z,39.01
2022-12-18T02:10:03.087Z,39.31
2022-12-18T02:10:41.916Z,39.22
2022-12-18T02:11:20.160Z,39.49
2022-12-18T02:11:57.812Z,39.50
2022-12-18T02:12:40.672Z,39.31
2022-12-18T02:13:15.692Z,39.24
2022-12-18T02:13:55.836Z,39.33
2022-12-18T02:14:35.739Z,39.41
2022-12-18T02:15:15.365Z,39.55
2022-12-18T02:15:54.444Z,39.18
2022-12-18T02:16:36.426Z,39.09
2022-12-18T02:17:11.714Z,39.38
2022-12-18T02:17:47.339Z,39.21
2022-12-18T02:18:24.865Z,39.44
2022-12-18T02:19:00.453Z,39.65
2022-12-18T02:19:43.343Z,40.20
2022-12-18T02:20:21.760Z,40.81
2022-12-18T02:20:56.997Z,40.79
2022-12-18T02:21:35.603Z,40.56
2022-12-18T02:22:22.640Z,40.17
2022-12-18T02:23:05.811Z,39.68
2022-12-18T02:23:51.364Z,38.92
2022-12-18T02:24:32.996Z,38.92
2022-12-18T02:25:16.898Z,38.49
2022-12-18T02:26:07.087Z,38.02
2022-12-18T02:26:42.075Z,38.07
2022-12-18T02:27:17.353Z,37.52
2022-12-18T02:27:52.316Z,37.59
2022-12-18T02:28:31.419Z,37.20
2022-12-18T02:29:10.795Z,37.17
2022-12-18T02:29:46.532Z,37.05
2022-12-18T02:30:19.643Z,37.11
2022-12-18T02:30:56.404Z,37.08
2022-12-18T02:31:31.732Z,36.93
2022-12-18T02:32:07.471Z,36.65
2022-12-18T02:32:44.085Z,36.35
2022-12-18T02:33:16.953Z,36.19
2022-12-18T02:33:50.916Z,36.46
2022-12-18T02:34:30.115Z,36.50
2022-12-18T02:35:06.094Z,36.17
2022-12-18T02:35:40.847Z,36.47
2022-12-18T02:36:17.090Z,36.26
2022-12-18T02:36:51.160Z,36.23
2022-12-18T02:37:24.636Z,36.15
2022-12-18T02:38:01.060Z,36.28
2022-12-18T02:38:36.367Z,36.36
2022-12-18T02:39:16.935Z,35.83
2022-12-18T02:40:04.514Z,36.23
2022-12-18T02:40:39.032Z,36.23
2022-12-18T02:41:14.716Z,36.10
2022-12-18T02:41:48.336Z,35.71
2022-12-18T02:42:23.663Z,35.89
2022-12-18T02:42:56.036Z,36.10
2022-12-18T02:43:31.273Z,35.91
2022-12-18T02:44:14.039Z,35.82
2022-12-18T02:44:49.111Z,35.60
2022-12-18T02:45:24.654Z,35.65
2022-12-18T02:46:02.762Z,35.64
2022-12-18T02:46:39.523Z,35.59
2022-12-18T02:47:19.460Z,35.88
2022-12-18T02:47:54.496Z,35.52
2022-12-18T02:48:32.800Z,35.74
2022-12-18T02:49:13.566Z,35.80
2022-12-18T02:49:55.364Z,35.83
2022-12-18T02:50:33.075Z,35.38
2022-12-18T02:51:10.053Z,35.53
2022-12-18T02:51:52.482Z,35.92
2022-12-18T02:52:30.572Z,35.67
2022-12-18T02:53:15.109Z,35.67
2022-12-18T02:53:54.875Z,35.88
2022-12-18T02:54:37.698Z,35.40
2022-12-18T02:55:20.812Z,35.38
2022-12-18T02:56:07.390Z,35.73
2022-12-18T02:56:47.524Z,35.74
2022-12-18T02:57:30.276Z,35.56
2022-12-18T02:58:07.587Z,35.40
2022-12-18T02:58:51.520Z,35.52
2022-12-18T02:59:41.435Z,35.48
2022-12-18T03:00:16.768Z,35.40
2022-12-18T03:00:56.043Z,35.47
2022-12-18T03:01:35.244Z,35.77
2022-12-18T03:02:18.883Z,35.69
2022-12-18T03:02:59.906Z,35.28
2022-12-18T03:03:37.948Z,35.26
2022-12-18T03:04:15.480Z,35.78
2022-12-18T03:04:53.860Z,35.49
2022-12-18T03:05:31.983Z,35.50
2022-12-18T03:06:08.004Z,35.45
2022-12-18T03:06:45.919Z,35.60
2022-12-18T03:07:22.347Z,35.67
2022-12-18T03:07:58.428Z,35.40
2022-12-18T03:08:40.105Z,35.45
2022-12-18T03:09:14.984Z,35.32
2022-12-18T03:09:50.744Z,35.28
2022-12-18T03:10:32.764Z,35.61
2022-12-18T03:11:07.792Z,35.63
2022-12-18T03:12:03.067Z,35.65
2022-12-18T03:12:37.733Z,35.28
2022-12-18T03:13:16.525Z,35.45
2022-12-18T03:13:50.793Z,35.59
2022-12-18T03:14:23.951Z,35.16
2022-12-18T03:15:00.761Z,35.57
2022-12-18T03:15:39.335Z,35.24
2022-12-18T03:16:20.519Z,35.22
2022-12-18T03:16:56.334Z,35.59
2022-12-18T03:17:29.471Z,35.50
2022-12-18T03:18:08.671Z,35.36
2022-12-18T03:18:44.754Z,35.45
2022-12-18T03:19:18.395Z,35.18
2022-12-18T03:19:51.372Z,35.42
2022-12-18T03:20:27.529Z,35.24
2022-12-18T03:21:03.801Z,35.25
2022-12-18T03:21:40.823Z,35.54
2022-12-18T03:22:16.344Z,35.18
2022-12-18T03:22:55.884Z,35.39
2022-12-18T03:23:33.751Z,35.16
2022-12-18T03:24:07.797Z,35.22
2022-12-18T03:24:41.584Z,35.37
2022-12-18T03:25:18.100Z,35.09
2022-12-18T03:25:53.893Z,35.20
2022-12-18T03:26:29.215Z,35.24
2022-12-18T03:27:16.498Z,35.30
2022-12-18T03:27:51.999Z,35.56
2022-12-18T03:28:30.743Z,35.11
2022-12-18T03:29:09.451Z,35.18
2022-12-18T03:29:45.673Z,35.18
2022-12-18T03:30:22.969Z,35.13
2022-12-18T03:30:58.104Z,35.52
2022-12-18T03:31:31.133Z,35.16
2022-12-18T03:32:13.632Z,35.09
2022-12-18T03:32:48.782Z,35.43
2022-12-18T03:33:26.972Z,35.40
2022-12-18T03:34:06.152Z,34.93
2022-12-18T03:34:49.509Z,34.99
2022-12-18T03:35:31.339Z,35.33
2022-12-18T03:36:06.833Z,35.32
2022-12-18T03:36:39.251Z,35.13
2022-12-18T03:37:11.877Z,35.39
2022-12-18T03:37:44.220Z,35.15
2022-12-18T03:38:19.164Z,35.19
2022-12-18T03:38:53.598Z,34.99
2022-12-18T03:39:28.148Z,35.33
2022-12-18T03:40:06.611Z,35.37
2022-12-18T03:40:47.323Z,35.21
2022-12-18T03:41:25.071Z,34.91
2022-12-18T03:42:29.970Z,34.85
2022-12-18T03:43:12.384Z,35.13
2022-12-18T03:43:50.780Z,35.08
2022-12-18T03:44:32.070Z,34.89
2022-12-18T03:45:10.596Z,34.99
2022-12-18T03:45:47.032Z,35.19
2022-12-18T03:46:29.607Z,35.18
2022-12-18T03:47:07.399Z,35.16
2022-12-18T03:47:44.610Z,35.21
2022-12-18T03:48:23.060Z,34.95
2022-12-18T03:49:01.292Z,35.08
2022-12-18T03:49:37.992Z,34.98
2022-12-18T03:50:17.565Z,35.23
2022-12-18T03:50:57.783Z,35.28
2022-12-18T03:51:40.793Z,34.93
2022-12-18T03:52:20.939Z,35.10
2022-12-18T03:52:56.352Z,35.23
2022-12-18T03:53:35.821Z,34.87
2022-12-18T03:54:12.180Z,35.10
2022-12-18T03:54:49.798Z,35.01
2022-12-18T03:55:24.228Z,35.27
2022-12-18T03:56:03.767Z,35.04
2022-12-18T03:56:52.045Z,35.21
2022-12-18T03:57:31.398Z,35.23
2022-12-18T03:58:05.209Z,35.18
2022-12-18T03:58:53.030Z,35.22
2022-12-18T03:59:29.480Z,34.95
2022-12-18T04:00:06.928Z,34.89
2022-12-18T04:00:49.356Z,35.16
2022-12-18T04:01:25.333Z,34.95
2022-12-18T04:01:59.229Z,35.23
2022-12-18T04:02:35.496Z,35.25
2022-12-18T04:03:09.600Z,34.82
2022-12-18T04:03:50.438Z,35.11
2022-12-18T04:04:28.259Z,35.21
2022-12-18T04:05:02.900Z,34.94
2022-12-18T04:05:35.907Z,34.92
2022-12-18T04:06:11.525Z,35.01
2022-12-18T04:06:47.332Z,35.38
2022-12-18T04:07:19.987Z,35.27
2022-12-18T04:07:55.804Z,35.11
2022-12-18T04:08:28.319Z,35.29
2022-12-18T04:09:09.809Z,35.24
2022-12-18T04:09:48.780Z,35.09
2022-12-18T04:10:21.337Z,35.25
2022-12-18T04:10:53.937Z,35.23
2022-12-18T04:11:26.611Z,35.28
2022-12-18T04:12:02.229Z,35.09
2022-12-18T04:12:38.948Z,35.33
2022-12-18T04:13:13.596Z,35.31
2022-12-18T04:13:48.980Z,35.30
2022-12-18T04:14:28.012Z,34.99
2022-12-18T04:15:02.411Z,34.90
2022-12-18T04:15:39.046Z,34.89
2022-12-18T04:16:15.576Z,35.02
2022-12-18T04:16:52.655Z,35.16
2022-12-18T04:17:29.305Z,34.97
2022-12-18T04:18:03.092Z,35.18
2022-12-18T04:18:45.459Z,35.18
2022-12-18T04:19:20.415Z,35.00
2022-12-18T04:19:55.971Z,35.29
2022-12-18T04:20:32.469Z,34.96
2022-12-18T04:21:05.080Z,34.96
2022-12-18T04:21:39.000Z,35.05
2022-12-18T04:22:14.808Z,35.23
2022-12-18T04:22:51.423Z,35.11
2022-12-18T04:23:25.588Z,34.95
2022-12-18T04:24:06.030Z,34.89
2022-12-18T04:24:41.100Z,35.17
2022-12-18T04:25:23.295Z,35.02
2022-12-18T04:26:12.371Z,35.21
2022-12-18T04:27:03.345Z,35.02
2022-12-18T04:27:45.324Z,34.79
2022-12-18T04:28:18.400Z,35.28
2022-12-18T04:28:50.608Z,34.81
2022-12-18T04:29:25.440Z,35.23
2022-12-18T04:29:58.095Z,34.87
2022-12-18T04:30:30.439Z,35.14
2022-12-18T04:31:05.293Z,35.08
2022-12-18T04:31:37.643Z,34.88
2022-12-18T04:32:10.560Z,35.16
2022-12-18T04:32:51.898Z,34.92
2022-12-18T04:33:24.997Z,35.06
2022-12-18T04:33:57.309Z,34.81
2022-12-18T04:34:29.660Z,35.04
2022-12-18T04:35:05.270Z,35.11
2022-12-18T04:35:38.676Z,35.34
2022-12-18T04:36:10.988Z,35.21
2022-12-18T04:36:46.294Z,34.93
2022-12-18T04:37:19.354Z,35.26
2022-12-18T04:37:52.911Z,35.06
2022-12-18T04:38:28.470Z,34.90
2022-12-18T04:39:08.575Z,34.91
2022-12-18T04:39:41.500Z,35.40
2022-12-18T04:40:23.444Z,35.25
2022-12-18T04:40:56.152Z,34.96
2022-12-18T04:41:31.949Z,34.89
2022-12-18T04:42:04.355Z,34.93
2022-12-18T04:42:39.207Z,34.93
2022-12-18T04:43:14.182Z,35.01
2022-12-18T04:43:49.094Z,34.97
2022-12-18T04:44:21.375Z,35.29
2022-12-18T04:44:53.629Z,35.18
2022-12-18T04:45:28.421Z,35.32
2022-12-18T04:46:04.788Z,34.95
2022-12-18T04:46:37.075Z,35.01
2022-12-18T04:47:12.016Z,34.84
2022-12-18T04:47:44.240Z,35.07
2022-12-18T04:48:16.476Z,35.02
2022-12-18T04:48:51.321Z,35.16
2022-12-18T04:49:23.524Z,35.12
2022-12-18T04:49:55.736Z,35.10
2022-12-18T04:50:31.138Z,34.98
2022-12-18T04:51:03.497Z,35.07
2022-12-18T04:51:35.747Z,35.02
2022-12-18T04:52:10.780Z,35.03
2022-12-18T04:52:42.987Z,35.22
2022-12-18T04:53:15.199Z,35.15
2022-12-18T04:53:50.016Z,34.83
2022-12-18T04:54:22.363Z,35.01
2022-12-18T04:54:54.557Z,35.18
2022-12-18T04:55:29.569Z,35.19
2022-12-18T04:56:06.523Z,35.11
2022-12-18T04:56:38.796Z,34.89
2022-12-18T04:57:13.640Z,34.98
2022-12-18T04:57:46.333Z,34.86
2022-12-18T04:58:21.148Z,34.90
2022-12-18T04:58:55.951Z,35.25
2022-12-18T04:59:28.205Z,35.24
2022-12-18T05:00:00.439Z,35.01
2022-12-18T05:00:35.279Z,35.15
2022-12-18T05:01:08.550Z,34.76
2022-12-18T05:01:40.930Z,35.28
2022-12-18T05:02:16.036Z,35.32
2022-12-18T05:02:48.438Z,34.82
2022-12-18T05:03:20.783Z,34.92
2022-12-18T05:03:56.143Z,34.97
2022-12-18T05:04:28.681Z,34.87
2022-12-18T05:05:00.919Z,34.87
2022-12-18T05:05:35.724Z,34.71
2022-12-18T05:06:08.808Z,34.86
2022-12-18T05:06:43.627Z,34.82
2022-12-18T05:07:15.869Z,35.16
2022-12-18T05:07:48.076Z,35.13
2022-12-18T05:08:22.935Z,34.82
2022-12-18T05:08:55.143Z,34.83
2022-12-18T05:09:27.360Z,34.91
2022-12-18T05:10:02.220Z,34.82
2022-12-18T05:10:38.043Z,34.93
2022-12-18T05:11:12.387Z,34.96
2022-12-18T05:11:47.742Z,34.71
2022-12-18T05:12:20.008Z,35.14
2022-12-18T05:13:01.159Z,34.74
2022-12-18T05:13:40.254Z,34.91
2022-12-18T05:14:12.679Z,35.06
2022-12-18T05:14:44.917Z,35.00
2022-12-18T05:15:19.961Z,35.11
2022-12-18T05:15:53.597Z,34.91
2022-12-18T05:16:26.181Z,35.23
2022-12-18T05:17:01.417Z,35.00
2022-12-18T05:17:33.762Z,34.94
2022-12-18T05:18:06.168Z,34.25
2022-12-18T05:18:41.108Z,34.58
2022-12-18T05:19:13.316Z,34.72
2022-12-18T05:19:45.781Z,35.12
2022-12-18T05:20:20.760Z,35.28
2022-12-18T05:20:53.536Z,36.75
2022-12-18T05:21:25.751Z,37.23
2022-12-18T05:22:00.820Z,36.23
2022-12-18T05:22:33.056Z,36.00
2022-12-18T05:23:05.325Z,35.80
2022-12-18T05:23:40.457Z,35.56
2022-12-18T05:24:13.104Z,35.21
2022-12-18T05:24:45.306Z,35.10
2022-12-18T05:25:17.882Z,35.13
2022-12-18T05:25:54.902Z,35.00
2022-12-18T05:26:27.184Z,35.04
2022-12-18T05:26:59.424Z,34.71
2022-12-18T05:27:34.231Z,34.48
2022-12-18T05:28:06.443Z,34.81
2022-12-18T05:28:41.264Z,34.62
2022-12-18T05:29:16.084Z,35.05
2022-12-18T05:29:48.393Z,34.87
2022-12-18T05:30:20.617Z,34.74
2022-12-18T05:30:56.713Z,34.73
2022-12-18T05:31:28.976Z,34.89
2022-12-18T05:32:01.208Z,34.88
2022-12-18T05:32:36.105Z,34.60
2022-12-18T05:33:08.316Z,34.95
2022-12-18T05:33:40.887Z,34.69
2022-12-18T05:34:15.885Z,34.92
2022-12-18T05:34:48.087Z,34.99
2022-12-18T05:35:20.440Z,34.97
2022-12-18T05:35:55.460Z,34.82
2022-12-18T05:36:27.733Z,34.64
2022-12-18T05:36:59.946Z,34.71
2022-12-18T05:37:39.525Z,34.75
2022-12-18T05:38:14.851Z,35.06
2022-12-18T05:38:47.063Z,34.77
2022-12-18T05:39:21.882Z,34.74
2022-12-18T05:39:54.079Z,35.13
2022-12-18T05:40:26.364Z,35.05
2022-12-18T05:40:58.762Z,35.06
2022-12-18T05:41:33.653Z,34.94
2022-12-18T05:42:05.972Z,34.79
2022-12-18T05:42:38.314Z,34.66
2022-12-18T05:43:10.610Z,35.02
2022-12-18T05:43:48.029Z,34.93
2022-12-18T05:44:20.236Z,34.62
2022-12-18T05:44:52.481Z,35.01
2022-12-18T05:45:24.730Z,34.87
2022-12-18T05:46:00.072Z,34.67
2022-12-18T05:46:32.352Z,34.57
2022-12-18T05:47:05.332Z,34.98
2022-12-18T05:47:40.188Z,35.07
2022-12-18T05:48:12.480Z,34.69
2022-12-18T05:48:45.668Z,35.20
2022-12-18T05:49:20.467Z,34.85
2022-12-18T05:49:52.673Z,34.77
2022-12-18T05:50:24.897Z,35.14
2022-12-18T05:50:59.789Z,34.91
2022-12-18T05:51:32.548Z,34.68
2022-12-18T05:52:05.012Z,34.81
2022-12-18T05:52:39.927Z,35.00
2022-12-18T05:53:12.819Z,34.65
2022-12-18T05:53:45.212Z,34.67
2022-12-18T05:54:20.039Z,35.03
2022-12-18T05:54:52.264Z,34.67
2022-12-18T05:55:24.460Z,34.94
2022-12-18T05:56:04.037Z,35.07
2022-12-18T05:56:36.244Z,35.07
2022-12-18T05:57:08.451Z,34.57
2022-12-18T05:57:43.276Z,35.06
2022-12-18T05:58:16.201Z,34.71
2022-12-18T05:58:55.230Z,35.11
2022-12-18T05:59:27.656Z,34.82
2022-12-18T05:59:59.867Z,34.74
2022-12-18T06:00:35.913Z,34.77
2022-12-18T06:01:10.764Z,34.84
2022-12-18T06:01:44.359Z,34.89
2022-12-18T06:02:19.372Z,35.03
2022-12-18T06:02:51.754Z,35.05
2022-12-18T06:03:26.881Z,34.78
2022-12-18T06:04:05.764Z,35.13
2022-12-18T06:04:38.120Z,34.59
2022-12-18T06:05:10.380Z,34.97
2022-12-18T06:05:47.512Z,34.76
2022-12-18T06:06:21.586Z,34.77
2022-12-18T06:06:53.848Z,34.63
2022-12-18T06:07:28.658Z,34.83
2022-12-18T06:08:00.983Z,34.66
2022-12-18T06:08:33.200Z,35.10
2022-12-18T06:09:09.284Z,35.01
2022-12-18T06:09:44.132Z,34.99
2022-12-18T06:10:16.524Z,34.63
2022-12-18T06:10:52.773Z,35.01
2022-12-18T06:11:29.242Z,34.85
2022-12-18T06:12:01.516Z,34.80
2022-12-18T06:12:34.575Z,34.71
2022-12-18T06:13:09.994Z,34.73
2022-12-18T06:13:42.534Z,35.01
2022-12-18T06:14:18.351Z,35.17
2022-12-18T06:14:53.200Z,34.72
2022-12-18T06:15:25.587Z,34.93
2022-12-18T06:15:57.856Z,34.57
2022-12-18T06:16:33.254Z,34.55
2022-12-18T06:17:05.516Z,34.87
2022-12-18T06:17:38.244Z,34.94
2022-12-18T06:18:13.047Z,34.86
2022-12-18T06:18:45.261Z,34.60
2022-12-18T06:19:17.584Z,34.96
2022-12-18T06:19:52.417Z,34.68
2022-12-18T06:20:26.911Z,34.98
2022-12-18T06:21:03.011Z,34.74
2022-12-18T06:21:37.846Z,34.65
2022-12-18T06:22:10.059Z,35.07
2022-12-18T06:22:42.272Z,35.06
2022-12-18T06:23:17.117Z,34.61
2022-12-18T06:23:49.315Z,34.60
2022-12-18T06:24:21.543Z,34.78
2022-12-18T06:24:56.352Z,34.81
2022-12-18T06:25:28.756Z,34.60
2022-12-18T06:26:05.088Z,34.90
2022-12-18T06:26:41.197Z,34.79
2022-12-18T06:27:13.412Z,34.95
2022-12-18T06:27:45.634Z,34.46
2022-12-18T06:28:20.649Z,34.54
2022-12-18T06:28:52.984Z,34.83
2022-12-18T06:29:27.800Z,34.64
2022-12-18T06:30:03.003Z,34.94
2022-12-18T06:30:35.247Z,34.63
2022-12-18T06:31:08.179Z,34.64
2022-12-18T06:31:43.068Z,34.60
2022-12-18T06:32:15.304Z,34.88
2022-12-18T06:32:51.810Z,34.57
2022-12-18T06:33:29.184Z,34.58
2022-12-18T06:34:06.372Z,34.68
2022-12-18T06:34:39.267Z,34.45
2022-12-18T06:35:11.547Z,34.62
2022-12-18T06:35:46.408Z,34.84
2022-12-18T06:36:18.794Z,34.87
2022-12-18T06:36:51.056Z,34.57
2022-12-18T06:37:27.292Z,34.82
2022-12-18T06:37:59.537Z,34.56
2022-12-18T06:38:32.827Z,34.79
2022-12-18T06:39:07.637Z,34.76
2022-12-18T06:39:39.920Z,34.72
2022-12-18T06:40:12.300Z,34.77
2022-12-18T06:40:47.111Z,34.52
2022-12-18T06:41:20.847Z,34.62
2022-12-18T06:41:53.264Z,34.74
2022-12-18T06:42:28.141Z,34.77
2022-12-18T06:43:00.411Z,34.86
2022-12-18T06:43:32.674Z,34.86
2022-12-18T06:44:07.800Z,34.47
2022-12-18T06:44:42.626Z,34.48
2022-12-18T06:45:15.081Z,34.91
2022-12-18T06:45:53.743Z,34.73
2022-12-18T06:46:26.160Z,34.39
2022-12-18T06:46:58.372Z,34.00
2022-12-18T06:47:33.177Z,33.85
2022-12-18T06:48:05.571Z,34.03
2022-12-18T06:48:37.999Z,33.89
2022-12-18T06:49:13.501Z,34.28
2022-12-18T06:49:46.075Z,34.46
2022-12-18T06:50:18.586Z,34.69
2022-12-18T06:50:53.397Z,34.69
2022-12-18T06:51:25.922Z,35.23
2022-12-18T06:51:58.168Z,35.33
2022-12-18T06:52:32.981Z,35.50
2022-12-18T06:53:05.226Z,35.40
2022-12-18T06:53:40.368Z,35.79
2022-12-18T06:54:15.444Z,35.79
2022-12-18T06:54:47.660Z,36.16
2022-12-18T06:55:20.083Z,35.94
2022-12-18T06:55:55.392Z,36.27
2022-12-18T06:56:27.643Z,36.58
2022-12-18T06:56:59.853Z,36.57
2022-12-18T06:57:34.651Z,36.55
2022-12-18T06:58:07.137Z,36.68
2022-12-18T06:58:40.461Z,36.61
2022-12-18T06:59:16.608Z,36.83
2022-12-18T06:59:51.448Z,36.76
2022-12-18T07:00:23.706Z,36.79
2022-12-18T07:01:03.968Z,37.31
2022-12-18T07:01:36.335Z,37.00
2022-12-18T07:02:12.479Z,37.29
2022-12-18T07:02:47.466Z,37.14
2022-12-18T07:03:19.779Z,37.23
2022-12-18T07:03:54.443Z,37.44
2022-12-18T07:04:32.040Z,37.55
2022-12-18T07:05:10.264Z,37.96
2022-12-18T07:05:43.030Z,37.54
2022-12-18T07:06:19.181Z,37.38
2022-12-18T07:06:51.445Z,37.91
2022-12-18T07:07:23.663Z,37.68
2022-12-18T07:07:58.463Z,37.91
2022-12-18T07:08:30.825Z,37.67
2022-12-18T07:09:03.031Z,37.83
2022-12-18T07:09:37.899Z,37.92
2022-12-18T07:10:10.791Z,37.99
2022-12-18T07:10:47.484Z,38.26
2022-12-18T07:11:23.224Z,38.05
2022-12-18T07:11:55.453Z,37.97
2022-12-18T07:12:28.220Z,38.01
2022-12-18T07:13:03.011Z,37.95
2022-12-18T07:13:35.242Z,37.93
2022-12-18T07:14:07.456Z,37.93
2022-12-18T07:14:42.312Z,38.12
2022-12-18T07:15:17.198Z,38.10
2022-12-18T07:15:49.460Z,38.72
2022-12-18T07:16:26.123Z,39.73
2022-12-18T07:16:58.566Z,39.67
2022-12-18T07:17:31.236Z,39.83
2022-12-18T07:18:03.790Z,39.92
2022-12-18T07:18:38.765Z,39.81
2022-12-18T07:19:11.168Z,39.35
2022-12-18T07:19:43.378Z,39.33
2022-12-18T07:20:18.273Z,38.77
2022-12-18T07:20:50.499Z,38.72
2022-12-18T07:21:23.569Z,38.31
2022-12-18T07:21:58.387Z,37.40
2022-12-18T07:22:30.598Z,37.64
2022-12-18T07:23:03.275Z,37.39
2022-12-18T07:23:39.208Z,36.84
2022-12-18T07:24:11.659Z,37.25
2022-12-18T07:24:43.858Z,36.88
2022-12-18T07:25:18.747Z,36.63
2022-12-18T07:25:50.947Z,36.68
2022-12-18T07:26:23.692Z,36.72
2022-12-18T07:26:58.503Z,35.98
2022-12-18T07:27:30.705Z,36.20
2022-12-18T07:28:06.013Z,36.30
2022-12-18T07:28:39.276Z,35.48
2022-12-18T07:29:11.497Z,35.94
2022-12-18T07:29:46.316Z,35.74
2022-12-18T07:30:21.265Z,35.62
2022-12-18T07:30:53.563Z,35.84
2022-12-18T07:31:30.293Z,36.03
2022-12-18T07:32:02.611Z,35.46
2022-12-18T07:32:37.442Z,35.65
2022-12-18T07:33:09.721Z,35.42
2022-12-18T07:33:42.843Z,34.89
2022-12-18T07:34:18.865Z,35.60
2022-12-18T07:34:51.079Z,35.58